createdAt,value
2019-01-22T00:02:47.815Z,-0.3
2019-01-22T00:07:47.941Z,-0.3
2019-01-22T00:12:27.098Z,-0.3
2019-01-22T00:17:28.485Z,-0.3
2019-01-22T00:22:28.228Z,-0.4
2019-01-22T00:27:28.597Z,-0.5
2019-01-22T00:32:27.700Z,-0.6
2019-01-22T00:37:27.432Z,-0.8
2019-01-22T00:42:27.870Z,-0.9
2019-01-22T00:47:27.414Z,-0.9
2019-01-22T00:52:27.238Z,-0.9
2019-01-22T00:57:27.942Z,-1.1
2019-01-22T01:02:28.333Z,-1.1
2019-01-22T01:07:28.117Z,-1.3
2019-01-22T01:12:27.879Z,-1.4
2019-01-22T01:17:27.375Z,-1.4
2019-01-22T01:22:28.208Z,-1.5
2019-01-22T01:27:28.561Z,-1.5
2019-01-22T01:32:28.220Z,-1.7
2019-01-22T01:37:28.399Z,-1.8
2019-01-22T01:42:28.198Z,-1.9
2019-01-22T01:47:28.249Z,-2.0
2019-01-22T01:52:27.145Z,-2.1
2019-01-22T01:57:28.551Z,-2.1
2019-01-22T02:02:27.838Z,-2.2
2019-01-22T02:07:27.832Z,-2.3
2019-01-22T02:12:27.951Z,-2.5
2019-01-22T02:17:28.091Z,-2.6
2019-01-22T02:22:27.925Z,-2.6
2019-01-22T02:27:28.088Z,-2.7
2019-01-22T02:32:28.684Z,-2.3
2019-01-22T02:37:27.693Z,-2.3
2019-01-22T02:42:27.349Z,-2.4
2019-01-22T02:47:28.110Z,-2.3
2019-01-22T02:52:27.766Z,-2.3
2019-01-22T02:57:28.211Z,-2.2
2019-01-22T03:02:28.503Z,-2.3
2019-01-22T03:07:28.656Z,-2.1
2019-01-22T03:12:27.641Z,-1.9
2019-01-22T03:17:28.495Z,-1.9
2019-01-22T03:22:28.287Z,-1.6
2019-01-22T03:27:27.539Z,-1.6
2019-01-22T03:32:27.550Z,-1.6
2019-01-22T03:37:28.523Z,-1.7
2019-01-22T03:42:28.458Z,-1.6
2019-01-22T03:47:28.094Z,-1.6
2019-01-22T03:52:27.312Z,-1.6
2019-01-22T03:57:27.283Z,-1.6
2019-01-22T04:02:27.935Z,-1.8
2019-01-22T04:07:28.448Z,-1.9
2019-01-22T04:12:27.793Z,-1.9
2019-01-22T04:17:28.498Z,-2.1
2019-01-22T04:22:27.535Z,-2.1
2019-01-22T04:27:27.635Z,-2.3
2019-01-22T04:32:28.946Z,-2.4
2019-01-22T04:37:27.951Z,-2.4
2019-01-22T04:42:27.351Z,-2.4
2019-01-22T04:47:27.625Z,-2.3
2019-01-22T04:52:27.186Z,-2.3
2019-01-22T04:57:28.189Z,-2.1
2019-01-22T05:02:27.614Z,-2.0
2019-01-22T05:07:28.402Z,-2.0
2019-01-22T05:12:27.539Z,-1.9
2019-01-22T05:17:28.721Z,-1.8
2019-01-22T05:22:27.920Z,-1.7
2019-01-22T05:27:28.551Z,-1.6
2019-01-22T05:32:27.817Z,-1.6
2019-01-22T05:37:28.179Z,-1.5
2019-01-22T05:42:28.043Z,-1.5
2019-01-22T05:47:28.847Z,-1.4
2019-01-22T05:52:27.325Z,-1.4
2019-01-22T05:57:28.076Z,-1.5
2019-01-22T06:02:27.184Z,-1.5
2019-01-22T06:07:27.859Z,-1.4
2019-01-22T06:12:27.924Z,-1.4
2019-01-22T06:17:28.405Z,-1.4
2019-01-22T06:22:27.528Z,-1.4
2019-01-22T06:27:28.110Z,-1.4
2019-01-22T06:32:27.634Z,-1.4
2019-01-22T06:37:28.178Z,-1.3
2019-01-22T06:42:29.496Z,-1.2
2019-01-22T06:47:28.600Z,-1.2
2019-01-22T06:52:28.288Z,-1.2
2019-01-22T06:57:28.333Z,-1.1
2019-01-22T07:02:28.409Z,-1.2
2019-01-22T07:07:28.092Z,-1.2
2019-01-22T07:12:28.083Z,-1.2
2019-01-22T07:17:29.113Z,-1.2
2019-01-22T07:22:27.950Z,-1.2
2019-01-22T07:27:28.347Z,-1.3
2019-01-22T07:32:28.789Z,-1.3
2019-01-22T07:37:28.646Z,-1.4
2019-01-22T07:42:28.794Z,-1.5
2019-01-22T07:47:28.535Z,-1.8
2019-01-22T07:52:28.044Z,-1.9
2019-01-22T07:57:28.683Z,-2.0
2019-01-22T08:02:28.473Z,-2.0
2019-01-22T08:07:28.791Z,-2.0
2019-01-22T08:12:28.993Z,-2.0
2019-01-22T08:17:28.940Z,-1.9
2019-01-22T08:22:28.590Z,-1.9
2019-01-22T08:27:29.723Z,-1.7
2019-01-22T08:32:28.687Z,-1.7
2019-01-22T08:37:28.751Z,-1.6
2019-01-22T08:42:27.636Z,-1.6
2019-01-22T08:47:28.054Z,-1.2
2019-01-22T08:52:28.693Z,-1.2
2019-01-22T08:57:29.092Z,-0.6
2019-01-22T09:02:28.791Z,-0.7
2019-01-22T09:07:28.185Z,-0.4
2019-01-22T09:12:28.725Z,-0.3
2019-01-22T09:17:30.006Z,0.0
2019-01-22T09:22:28.526Z,-0.1
2019-01-22T09:27:28.362Z,0.1
2019-01-22T09:32:27.737Z,0.3
2019-01-22T09:37:28.963Z,0.5
2019-01-22T09:42:28.152Z,0.4
2019-01-22T09:47:29.037Z,0.4
2019-01-22T09:52:27.599Z,0.5
2019-01-22T09:57:28.808Z,0.8
2019-01-22T10:02:28.840Z,0.7
2019-01-22T10:07:29.140Z,0.8
2019-01-22T10:12:28.007Z,0.9
2019-01-22T10:17:28.462Z,1.2
2019-01-22T10:22:30.008Z,1.4
2019-01-22T10:27:28.356Z,1.3
2019-01-22T10:32:28.398Z,1.5
2019-01-22T10:37:28.552Z,1.5
2019-01-22T10:42:28.333Z,1.5
2019-01-22T10:47:28.648Z,1.6
2019-01-22T10:52:29.272Z,1.6
2019-01-22T10:57:28.758Z,1.7
2019-01-22T11:02:28.666Z,1.7
2019-01-22T11:07:28.863Z,1.8
2019-01-22T11:12:28.250Z,1.8
2019-01-22T11:17:28.378Z,1.9
2019-01-22T11:22:28.374Z,1.9
2019-01-22T11:27:28.624Z,1.9
2019-01-22T11:32:29.111Z,2.0
2019-01-22T11:37:27.989Z,2.1
2019-01-22T11:42:28.595Z,2.0
2019-01-22T11:47:28.737Z,2.0
2019-01-22T11:52:28.948Z,2.1
2019-01-22T11:57:28.979Z,2.0
2019-01-22T12:02:32.033Z,2.1
2019-01-22T12:07:28.535Z,2.0
2019-01-22T12:12:28.962Z,2.1
2019-01-22T12:17:29.173Z,2.1
2019-01-22T12:22:28.590Z,2.1
2019-01-22T12:27:29.180Z,1.9
2019-01-22T12:32:28.635Z,2.0
2019-01-22T12:37:28.175Z,2.2
2019-01-22T12:42:28.416Z,2.2
2019-01-22T12:47:29.804Z,2.2
2019-01-22T12:52:28.711Z,2.2
2019-01-22T12:57:28.271Z,2.2
2019-01-22T13:02:28.653Z,2.1
2019-01-22T13:07:28.148Z,2.2
2019-01-22T13:12:28.801Z,2.1
2019-01-22T13:17:29.190Z,2.1
2019-01-22T13:22:28.851Z,2.3
2019-01-22T13:27:28.323Z,2.4
2019-01-22T13:32:28.207Z,2.3
2019-01-22T13:37:28.346Z,2.3
2019-01-22T13:42:28.407Z,2.2
2019-01-22T13:47:28.362Z,2.2
2019-01-22T13:52:29.846Z,2.2
2019-01-22T13:57:28.098Z,2.1
2019-01-22T14:02:28.419Z,2.1
2019-01-22T14:07:29.148Z,2.1
2019-01-22T14:12:29.015Z,2.2
2019-01-22T14:17:28.335Z,2.2
2019-01-22T14:22:28.071Z,2.2
2019-01-22T14:27:29.250Z,2.1
2019-01-22T14:32:28.741Z,2.1
2019-01-22T14:37:28.272Z,2.0
2019-01-22T14:42:27.701Z,1.9
2019-01-22T14:47:28.247Z,1.9
2019-01-22T14:52:28.704Z,1.9
2019-01-22T14:57:28.496Z,1.9
2019-01-22T15:02:28.718Z,1.9
2019-01-22T15:07:28.438Z,1.9
2019-01-22T15:12:28.716Z,1.7
2019-01-22T15:17:28.828Z,1.7
2019-01-22T15:22:27.886Z,1.6
2019-01-22T15:27:28.043Z,1.4
2019-01-22T15:32:28.811Z,1.3
2019-01-22T15:37:28.088Z,1.3
2019-01-22T15:42:28.499Z,1.3
2019-01-22T15:47:28.516Z,1.3
2019-01-22T15:52:28.047Z,1.3
2019-01-22T15:57:28.312Z,1.3
2019-01-22T16:02:27.962Z,1.3
2019-01-22T16:07:27.804Z,1.3
2019-01-22T16:12:28.402Z,1.3
2019-01-22T16:17:28.649Z,1.3
2019-01-22T16:22:27.903Z,1.2
2019-01-22T16:27:28.516Z,1.1
2019-01-22T16:32:28.689Z,1.0
2019-01-22T16:37:29.016Z,0.9
2019-01-22T16:42:27.777Z,0.9
2019-01-22T16:47:28.504Z,0.8
2019-01-22T16:52:27.584Z,0.8
2019-01-22T16:57:27.925Z,0.8
2019-01-22T17:02:28.133Z,0.8
2019-01-22T17:07:28.195Z,0.8
2019-01-22T17:12:28.155Z,0.8
2019-01-22T17:17:28.431Z,0.8
2019-01-22T17:22:28.685Z,0.7
2019-01-22T17:27:27.454Z,0.7
2019-01-22T17:32:27.814Z,0.8
2019-01-22T17:37:28.624Z,0.8
2019-01-22T17:42:27.769Z,0.8
2019-01-22T17:47:27.737Z,0.8
2019-01-22T17:52:29.561Z,0.9
2019-01-22T17:57:28.128Z,0.8
2019-01-22T18:02:34.611Z,0.8
2019-01-22T18:07:28.489Z,0.8
2019-01-22T18:12:27.667Z,0.8
2019-01-22T18:17:28.197Z,0.8
2019-01-22T18:22:28.218Z,0.9
2019-01-22T18:27:29.924Z,0.8
2019-01-22T18:32:27.567Z,0.5
2019-01-22T18:37:28.196Z,0.3
2019-01-22T18:42:28.046Z,0.2
2019-01-22T18:47:28.442Z,0.3
2019-01-22T18:52:28.072Z,0.3
2019-01-22T18:57:27.695Z,0.2
2019-01-22T19:02:28.030Z,0.2
2019-01-22T19:07:28.637Z,0.1
2019-01-22T19:12:29.525Z,0.0
2019-01-22T19:17:28.139Z,0.0
2019-01-22T19:22:28.417Z,0.0
2019-01-22T19:27:33.894Z,0.1
2019-01-22T19:32:28.141Z,0.1
2019-01-22T19:37:27.695Z,0.1
2019-01-22T19:42:27.369Z,0.1
2019-01-22T19:47:29.301Z,0.2
2019-01-22T19:52:28.012Z,0.2
2019-01-22T19:57:27.550Z,0.1
2019-01-22T20:02:27.591Z,-0.1
2019-01-22T20:07:28.748Z,-0.1
2019-01-22T20:12:27.138Z,-0.2
2019-01-22T20:17:27.448Z,-0.3
2019-01-22T20:22:27.906Z,-0.3
2019-01-22T20:27:28.240Z,-0.2
2019-01-22T20:32:28.355Z,-0.1
2019-01-22T20:37:27.297Z,-0.1
2019-01-22T20:42:28.246Z,0.0
2019-01-22T20:47:28.791Z,-0.1
2019-01-22T20:52:27.719Z,-0.2
2019-01-22T20:57:27.599Z,-0.3
2019-01-22T21:02:28.065Z,-0.3
2019-01-22T21:07:28.313Z,-0.2
2019-01-22T21:12:28.732Z,-0.2
2019-01-22T21:17:28.485Z,-0.1
2019-01-22T21:22:27.505Z,-0.2
2019-01-22T21:27:27.851Z,-0.1
2019-01-22T21:32:29.050Z,-0.1
2019-01-22T21:37:28.015Z,-0.1
2019-01-22T21:42:28.307Z,-0.2
2019-01-22T21:47:27.686Z,-0.2
2019-01-22T21:52:27.662Z,-0.2
2019-01-22T21:57:28.679Z,-0.3
2019-01-22T22:02:28.072Z,-0.3
2019-01-22T22:07:28.558Z,-0.4
2019-01-22T22:12:27.716Z,-0.4
2019-01-22T22:17:28.125Z,-0.5
2019-01-22T22:22:27.397Z,-0.5
2019-01-22T22:27:27.294Z,-0.5
2019-01-22T22:32:28.138Z,-0.6
2019-01-22T22:37:27.581Z,-0.6
2019-01-22T22:42:27.593Z,-0.6
2019-01-22T22:47:27.908Z,-0.5
2019-01-22T22:52:27.798Z,-0.5
2019-01-22T22:57:27.880Z,-0.5
2019-01-22T23:02:27.985Z,-0.4
2019-01-22T23:07:28.925Z,-0.3
2019-01-22T23:12:29.019Z,-0.4
2019-01-22T23:22:41.217Z,-0.2
2019-01-22T23:27:39.602Z,-0.2
2019-01-22T23:32:39.194Z,-0.3
2019-01-22T23:37:38.527Z,-0.2
2019-01-22T23:42:39.546Z,-0.2
2019-01-22T23:47:40.506Z,-0.2
2019-01-22T23:52:39.889Z,-0.1
2019-01-22T23:57:39.394Z,-0.2
